sensor_id;sensor_type;location;lat;lon;timestamp;P1;durP1;ratioP1;P2;durP2;ratioP2
14167;SDS011;7163;50.626;12.922;2024-01-30T00:28:09;4.87;;;3.03;;
14167;SDS011;7163;50.626;12.922;2024-01-30T00:33:10;3.10;;;2.77;;
14167;SDS011;7163;50.626;12.922;2024-01-30T00:43:22;3.43;;;2.50;;
14167;SDS011;7163;50.626;12.922;2024-01-30T00:48:24;2.73;;;2.40;;
14167;SDS011;7163;50.626;12.922;2024-01-30T00:53:25;3.33;;;2.40;;
14167;SDS011;7163;50.626;12.922;2024-01-30T00:58:26;4.57;;;2.90;;
14167;SDS011;7163;50.626;12.922;2024-01-30T01:03:27;3.47;;;2.73;;
14167;SDS011;7163;50.626;12.922;2024-01-30T01:08:29;4.40;;;2.67;;
14167;SDS011;7163;50.626;12.922;2024-01-30T01:13:29;3.90;;;2.67;;
14167;SDS011;7163;50.626;12.922;2024-01-30T01:23:54;5.17;;;2.60;;
14167;SDS011;7163;50.626;12.922;2024-01-30T01:28:54;4.70;;;2.87;;
14167;SDS011;7163;50.626;12.922;2024-01-30T01:33:54;5.17;;;3.10;;
14167;SDS011;7163;50.626;12.922;2024-01-30T01:44:10;4.37;;;2.63;;
14167;SDS011;7163;50.626;12.922;2024-01-30T01:49:11;4.03;;;2.87;;
14167;SDS011;7163;50.626;12.922;2024-01-30T01:54:12;3.80;;;2.53;;
14167;SDS011;7163;50.626;12.922;2024-01-30T01:59:14;4.77;;;2.80;;
14167;SDS011;7163;50.626;12.922;2024-01-30T02:04:15;5.37;;;2.83;;
14167;SDS011;7163;50.626;12.922;2024-01-30T02:09:16;4.40;;;3.10;;
14167;SDS011;7163;50.626;12.922;2024-01-30T02:14:17;2.93;;;2.67;;
14167;SDS011;7163;50.626;12.922;2024-01-30T02:50:18;5.03;;;2.93;;
14167;SDS011;7163;50.626;12.922;2024-01-30T02:55:19;3.50;;;2.80;;
14167;SDS011;7163;50.626;12.922;2024-01-30T03:00:20;4.40;;;2.90;;
14167;SDS011;7163;50.626;12.922;2024-01-30T03:05:21;3.27;;;2.70;;
14167;SDS011;7163;50.626;12.922;2024-01-30T03:10:22;3.90;;;3.10;;
14167;SDS011;7163;50.626;12.922;2024-01-30T03:15:23;4.43;;;3.00;;
14167;SDS011;7163;50.626;12.922;2024-01-30T03:20:24;7.17;;;3.20;;
14167;SDS011;7163;50.626;12.922;2024-01-30T03:25:26;4.07;;;2.90;;
14167;SDS011;7163;50.626;12.922;2024-01-30T03:30:27;3.97;;;3.20;;
14167;SDS011;7163;50.626;12.922;2024-01-30T03:35:27;3.90;;;2.87;;
14167;SDS011;7163;50.626;12.922;2024-01-30T03:40:28;2.77;;;2.53;;
14167;SDS011;7163;50.626;12.922;2024-01-30T03:45:28;7.67;;;3.23;;
14167;SDS011;7163;50.626;12.922;2024-01-30T03:50:29;5.07;;;3.20;;
14167;SDS011;7163;50.626;12.922;2024-01-30T03:55:30;6.33;;;3.43;;
14167;SDS011;7163;50.626;12.922;2024-01-30T04:00:30;5.00;;;3.70;;
14167;SDS011;7163;50.626;12.922;2024-01-30T04:05:31;6.87;;;3.97;;
14167;SDS011;7163;50.626;12.922;2024-01-30T05:07:24;32.08;;;14.00;;
14167;SDS011;7163;50.626;12.922;2024-01-30T05:12:26;43.00;;;20.27;;
14167;SDS011;7163;50.626;12.922;2024-01-30T05:17:26;15.37;;;8.50;;
14167;SDS011;7163;50.626;12.922;2024-01-30T05:22:27;164.93;;;44.87;;
14167;SDS011;7163;50.626;12.922;2024-01-30T05:27:27;20.10;;;8.70;;
14167;SDS011;7163;50.626;12.922;2024-01-30T05:32:28;82.30;;;27.57;;
14167;SDS011;7163;50.626;12.922;2024-01-30T05:37:28;98.37;;;32.53;;
14167;SDS011;7163;50.626;12.922;2024-01-30T05:42:28;72.60;;;26.47;;
14167;SDS011;7163;50.626;12.922;2024-01-30T05:47:29;39.50;;;14.80;;
14167;SDS011;7163;50.626;12.922;2024-01-30T05:52:30;29.53;;;12.87;;
14167;SDS011;7163;50.626;12.922;2024-01-30T05:57:30;22.77;;;9.37;;
14167;SDS011;7163;50.626;12.922;2024-01-30T06:02:31;19.27;;;8.93;;
14167;SDS011;7163;50.626;12.922;2024-01-30T06:07:32;19.17;;;8.60;;
14167;SDS011;7163;50.626;12.922;2024-01-30T06:12:32;22.73;;;11.13;;
14167;SDS011;7163;50.626;12.922;2024-01-30T06:17:32;15.77;;;8.57;;
14167;SDS011;7163;50.626;12.922;2024-01-30T06:22:33;16.80;;;8.03;;
14167;SDS011;7163;50.626;12.922;2024-01-30T06:27:33;13.00;;;6.20;;
14167;SDS011;7163;50.626;12.922;2024-01-30T06:32:35;13.47;;;7.60;;
14167;SDS011;7163;50.626;12.922;2024-01-30T06:37:36;17.47;;;8.80;;
14167;SDS011;7163;50.626;12.922;2024-01-30T06:42:37;16.87;;;8.33;;
14167;SDS011;7163;50.626;12.922;2024-01-30T06:47:37;20.07;;;10.67;;
14167;SDS011;7163;50.626;12.922;2024-01-30T06:52:38;17.37;;;9.50;;
14167;SDS011;7163;50.626;12.922;2024-01-30T06:57:38;72.00;;;30.70;;
14167;SDS011;7163;50.626;12.922;2024-01-30T07:02:39;103.27;;;44.27;;
14167;SDS011;7163;50.626;12.922;2024-01-30T07:07:40;89.33;;;38.07;;
14167;SDS011;7163;50.626;12.922;2024-01-30T07:12:40;86.27;;;38.93;;
14167;SDS011;7163;50.626;12.922;2024-01-30T07:17:41;84.57;;;38.27;;
14167;SDS011;7163;50.626;12.922;2024-01-30T07:22:43;66.93;;;31.57;;
14167;SDS011;7163;50.626;12.922;2024-01-30T07:27:44;71.20;;;31.57;;
14167;SDS011;7163;50.626;12.922;2024-01-30T07:32:45;66.63;;;31.17;;
14167;SDS011;7163;50.626;12.922;2024-01-30T07:37:46;122.80;;;51.23;;
14167;SDS011;7163;50.626;12.922;2024-01-30T07:42:47;42.73;;;23.27;;
14167;SDS011;7163;50.626;12.922;2024-01-30T07:47:49;99.00;;;47.30;;
14167;SDS011;7163;50.626;12.922;2024-01-30T07:52:50;51.00;;;26.27;;
14167;SDS011;7163;50.626;12.922;2024-01-30T07:57:55;45.27;;;25.07;;
14167;SDS011;7163;50.626;12.922;2024-01-30T08:02:57;46.10;;;22.63;;
14167;SDS011;7163;50.626;12.922;2024-01-30T08:07:58;27.00;;;14.73;;
14167;SDS011;7163;50.626;12.922;2024-01-30T08:23:19;43.53;;;25.47;;
14167;SDS011;7163;50.626;12.922;2024-01-30T08:28:20;21.63;;;11.47;;
14167;SDS011;7163;50.626;12.922;2024-01-30T08:33:21;30.20;;;15.37;;
14167;SDS011;7163;50.626;12.922;2024-01-30T08:38:21;32.13;;;18.63;;
14167;SDS011;7163;50.626;12.922;2024-01-30T08:43:25;39.80;;;21.30;;
14167;SDS011;7163;50.626;12.922;2024-01-30T08:48:26;15.20;;;8.30;;
14167;SDS011;7163;50.626;12.922;2024-01-30T08:53:27;29.37;;;15.97;;
14167;SDS011;7163;50.626;12.922;2024-01-30T08:58:28;7.10;;;3.93;;
14167;SDS011;7163;50.626;12.922;2024-01-30T09:03:28;8.43;;;2.53;;
14167;SDS011;7163;50.626;12.922;2024-01-30T09:08:29;5.90;;;2.77;;
14167;SDS011;7163;50.626;12.922;2024-01-30T09:13:30;10.20;;;2.63;;
14167;SDS011;7163;50.626;12.922;2024-01-30T09:18:31;6.60;;;2.13;;
14167;SDS011;7163;50.626;12.922;2024-01-30T09:23:31;15.43;;;2.50;;
14167;SDS011;7163;50.626;12.922;2024-01-30T09:28:33;8.90;;;2.10;;
14167;SDS011;7163;50.626;12.922;2024-01-30T09:33:34;5.37;;;2.40;;
14167;SDS011;7163;50.626;12.922;2024-01-30T09:38:35;5.57;;;2.33;;
14167;SDS011;7163;50.626;12.922;2024-01-30T09:43:35;17.17;;;3.63;;
14167;SDS011;7163;50.626;12.922;2024-01-30T09:48:41;8.53;;;2.93;;
14167;SDS011;7163;50.626;12.922;2024-01-30T09:53:43;3.37;;;2.30;;
14167;SDS011;7163;50.626;12.922;2024-01-30T09:58:46;7.80;;;2.73;;
14167;SDS011;7163;50.626;12.922;2024-01-30T10:03:50;4.07;;;2.87;;
14167;SDS011;7163;50.626;12.922;2024-01-30T10:08:52;9.77;;;2.93;;
14167;SDS011;7163;50.626;12.922;2024-01-30T10:13:52;6.17;;;3.07;;
14167;SDS011;7163;50.626;12.922;2024-01-30T10:18:53;7.60;;;3.37;;
14167;SDS011;7163;50.626;12.922;2024-01-30T10:23:54;5.93;;;3.57;;
14167;SDS011;7163;50.626;12.922;2024-01-30T10:28:55;10.83;;;3.73;;
14167;SDS011;7163;50.626;12.922;2024-01-30T10:33:56;6.63;;;3.93;;
14167;SDS011;7163;50.626;12.922;2024-01-30T10:38:59;7.00;;;4.13;;
14167;SDS011;7163;50.626;12.922;2024-01-30T10:44:05;8.13;;;3.80;;
14167;SDS011;7163;50.626;12.922;2024-01-30T10:49:08;8.67;;;3.73;;
14167;SDS011;7163;50.626;12.922;2024-01-30T10:54:09;14.00;;;5.27;;
14167;SDS011;7163;50.626;12.922;2024-01-30T10:59:10;8.00;;;3.70;;
14167;SDS011;7163;50.626;12.922;2024-01-30T11:04:11;12.73;;;4.40;;
14167;SDS011;7163;50.626;12.922;2024-01-30T11:09:17;7.83;;;3.63;;
14167;SDS011;7163;50.626;12.922;2024-01-30T11:14:24;6.37;;;3.80;;
14167;SDS011;7163;50.626;12.922;2024-01-30T11:19:26;6.63;;;3.93;;
14167;SDS011;7163;50.626;12.922;2024-01-30T11:24:27;8.43;;;5.10;;
14167;SDS011;7163;50.626;12.922;2024-01-30T11:29:28;8.13;;;4.70;;
14167;SDS011;7163;50.626;12.922;2024-01-30T11:34:50;13.70;;;4.40;;
14167;SDS011;7163;50.626;12.922;2024-01-30T11:39:50;15.10;;;6.40;;
14167;SDS011;7163;50.626;12.922;2024-01-30T11:44:53;8.77;;;4.40;;
14167;SDS011;7163;50.626;12.922;2024-01-30T11:49:55;11.35;;;4.65;;
14167;SDS011;7163;50.626;12.922;2024-01-30T11:54:56;7.05;;;3.67;;
14167;SDS011;7163;50.626;12.922;2024-01-30T11:59:57;20.50;;;4.38;;
14167;SDS011;7163;50.626;12.922;2024-01-30T12:04:57;9.55;;;4.30;;
14167;SDS011;7163;50.626;12.922;2024-01-30T12:25:28;7.00;;;3.80;;
14167;SDS011;7163;50.626;12.922;2024-01-30T12:30:32;12.82;;;3.72;;
14167;SDS011;7163;50.626;12.922;2024-01-30T12:35:37;14.20;;;4.53;;
14167;SDS011;7163;50.626;12.922;2024-01-30T12:40:41;7.07;;;3.90;;
14167;SDS011;7163;50.626;12.922;2024-01-30T12:45:45;21.23;;;10.98;;
14167;SDS011;7163;50.626;12.922;2024-01-30T12:50:45;9.20;;;4.87;;
14167;SDS011;7163;50.626;12.922;2024-01-30T12:55:46;10.37;;;4.33;;
14167;SDS011;7163;50.626;12.922;2024-01-30T13:00:46;10.77;;;4.70;;
14167;SDS011;7163;50.626;12.922;2024-01-30T13:05:48;10.70;;;6.53;;
14167;SDS011;7163;50.626;12.922;2024-01-30T13:10:49;7.60;;;4.60;;
14167;SDS011;7163;50.626;12.922;2024-01-30T13:15:49;7.65;;;4.43;;
14167;SDS011;7163;50.626;12.922;2024-01-30T13:20:50;7.87;;;4.20;;
14167;SDS011;7163;50.626;12.922;2024-01-30T13:25:52;7.53;;;3.93;;
14167;SDS011;7163;50.626;12.922;2024-01-30T13:30:54;11.83;;;5.63;;
14167;SDS011;7163;50.626;12.922;2024-01-30T13:35:54;12.77;;;5.47;;
14167;SDS011;7163;50.626;12.922;2024-01-30T13:40:55;10.30;;;6.53;;
14167;SDS011;7163;50.626;12.922;2024-01-30T13:45:56;10.63;;;4.70;;
14167;SDS011;7163;50.626;12.922;2024-01-30T13:50:57;13.37;;;5.30;;
14167;SDS011;7163;50.626;12.922;2024-01-30T13:55:58;10.10;;;5.20;;
14167;SDS011;7163;50.626;12.922;2024-01-30T14:00:59;10.03;;;5.40;;
14167;SDS011;7163;50.626;12.922;2024-01-30T14:05:59;9.17;;;5.57;;
14167;SDS011;7163;50.626;12.922;2024-01-30T14:11:00;10.87;;;5.67;;
14167;SDS011;7163;50.626;12.922;2024-01-30T14:16:00;10.97;;;4.90;;
14167;SDS011;7163;50.626;12.922;2024-01-30T14:31:22;11.17;;;4.63;;
14167;SDS011;7163;50.626;12.922;2024-01-30T14:36:24;8.37;;;4.80;;
14167;SDS011;7163;50.626;12.922;2024-01-30T14:41:28;14.73;;;7.13;;
14167;SDS011;7163;50.626;12.922;2024-01-30T14:46:30;15.90;;;5.97;;
14167;SDS011;7163;50.626;12.922;2024-01-30T14:51:33;11.97;;;6.90;;
14167;SDS011;7163;50.626;12.922;2024-01-30T14:56:35;14.67;;;6.17;;
14167;SDS011;7163;50.626;12.922;2024-01-30T15:01:35;12.33;;;5.20;;
14167;SDS011;7163;50.626;12.922;2024-01-30T15:06:36;12.53;;;5.50;;
14167;SDS011;7163;50.626;12.922;2024-01-30T15:11:37;9.13;;;4.57;;
14167;SDS011;7163;50.626;12.922;2024-01-30T15:16:37;7.77;;;4.33;;
14167;SDS011;7163;50.626;12.922;2024-01-30T15:21:38;14.07;;;4.63;;
14167;SDS011;7163;50.626;12.922;2024-01-30T15:26:39;7.63;;;4.00;;
14167;SDS011;7163;50.626;12.922;2024-01-30T15:31:39;11.10;;;4.50;;
14167;SDS011;7163;50.626;12.922;2024-01-30T15:36:40;10.70;;;4.80;;
14167;SDS011;7163;50.626;12.922;2024-01-30T15:41:41;6.17;;;3.93;;
14167;SDS011;7163;50.626;12.922;2024-01-30T15:46:44;6.87;;;3.83;;
14167;SDS011;7163;50.626;12.922;2024-01-30T15:51:45;7.40;;;4.37;;
14167;SDS011;7163;50.626;12.922;2024-01-30T15:56:46;6.93;;;3.50;;
14167;SDS011;7163;50.626;12.922;2024-01-30T16:01:46;7.80;;;3.93;;
14167;SDS011;7163;50.626;12.922;2024-01-30T16:06:49;7.43;;;3.50;;
14167;SDS011;7163;50.626;12.922;2024-01-30T16:11:50;6.87;;;3.90;;
14167;SDS011;7163;50.626;12.922;2024-01-30T16:22:01;9.20;;;5.13;;
14167;SDS011;7163;50.626;12.922;2024-01-30T16:47:42;15.93;;;6.47;;
14167;SDS011;7163;50.626;12.922;2024-01-30T16:52:43;12.77;;;7.17;;
14167;SDS011;7163;50.626;12.922;2024-01-30T16:57:43;10.30;;;4.93;;
14167;SDS011;7163;50.626;12.922;2024-01-30T17:02:44;10.97;;;6.70;;
14167;SDS011;7163;50.626;12.922;2024-01-30T17:07:45;14.70;;;6.60;;
14167;SDS011;7163;50.626;12.922;2024-01-30T17:12:46;15.33;;;8.00;;
14167;SDS011;7163;50.626;12.922;2024-01-30T17:17:46;12.27;;;6.87;;
14167;SDS011;7163;50.626;12.922;2024-01-30T17:22:47;13.90;;;7.27;;
14167;SDS011;7163;50.626;12.922;2024-01-30T17:27:48;12.30;;;6.43;;
14167;SDS011;7163;50.626;12.922;2024-01-30T17:32:49;12.43;;;5.87;;
14167;SDS011;7163;50.626;12.922;2024-01-30T17:37:52;13.10;;;6.30;;
14167;SDS011;7163;50.626;12.922;2024-01-30T17:42:53;9.93;;;4.73;;
14167;SDS011;7163;50.626;12.922;2024-01-30T17:47:53;8.70;;;5.10;;
14167;SDS011;7163;50.626;12.922;2024-01-30T17:52:53;11.40;;;6.10;;
14167;SDS011;7163;50.626;12.922;2024-01-30T17:57:54;14.90;;;8.30;;
14167;SDS011;7163;50.626;12.922;2024-01-30T18:02:54;11.37;;;5.80;;
14167;SDS011;7163;50.626;12.922;2024-01-30T18:07:56;11.03;;;5.30;;
14167;SDS011;7163;50.626;12.922;2024-01-30T18:12:57;9.77;;;6.17;;
14167;SDS011;7163;50.626;12.922;2024-01-30T18:18:02;9.23;;;5.17;;
14167;SDS011;7163;50.626;12.922;2024-01-30T18:23:02;9.60;;;4.93;;
14167;SDS011;7163;50.626;12.922;2024-01-30T18:28:03;11.37;;;5.00;;
14167;SDS011;7163;50.626;12.922;2024-01-30T18:33:07;9.20;;;5.87;;
14167;SDS011;7163;50.626;12.922;2024-01-30T18:38:11;10.03;;;5.30;;
14167;SDS011;7163;50.626;12.922;2024-01-30T18:43:14;10.90;;;5.83;;
14167;SDS011;7163;50.626;12.922;2024-01-30T18:48:15;12.00;;;5.40;;
14167;SDS011;7163;50.626;12.922;2024-01-30T18:53:15;7.67;;;4.63;;
14167;SDS011;7163;50.626;12.922;2024-01-30T18:58:16;10.77;;;4.70;;
14167;SDS011;7163;50.626;12.922;2024-01-30T19:03:20;12.17;;;5.00;;
14167;SDS011;7163;50.626;12.922;2024-01-30T19:08:21;8.50;;;5.07;;
14167;SDS011;7163;50.626;12.922;2024-01-30T19:23:42;9.10;;;4.83;;
14167;SDS011;7163;50.626;12.922;2024-01-30T19:28:43;10.20;;;4.47;;
14167;SDS011;7163;50.626;12.922;2024-01-30T19:38:49;10.17;;;5.00;;
14167;SDS011;7163;50.626;12.922;2024-01-30T19:43:49;9.67;;;4.53;;
14167;SDS011;7163;50.626;12.922;2024-01-30T19:54:00;9.50;;;4.60;;
14167;SDS011;7163;50.626;12.922;2024-01-30T19:59:01;11.87;;;5.10;;
14167;SDS011;7163;50.626;12.922;2024-01-30T20:04:01;9.30;;;4.83;;
14167;SDS011;7163;50.626;12.922;2024-01-30T20:14:12;9.20;;;4.73;;
14167;SDS011;7163;50.626;12.922;2024-01-30T20:29:35;10.87;;;5.17;;
14167;SDS011;7163;50.626;12.922;2024-01-30T20:34:36;18.23;;;5.50;;
14167;SDS011;7163;50.626;12.922;2024-01-30T20:39:37;10.13;;;4.93;;
14167;SDS011;7163;50.626;12.922;2024-01-30T20:44:39;10.50;;;4.63;;
14167;SDS011;7163;50.626;12.922;2024-01-30T20:49:42;9.43;;;4.70;;
14167;SDS011;7163;50.626;12.922;2024-01-30T20:54:43;15.57;;;4.87;;
14167;SDS011;7163;50.626;12.922;2024-01-30T20:59:44;13.53;;;5.40;;
14167;SDS011;7163;50.626;12.922;2024-01-30T21:04:45;14.40;;;5.90;;
14167;SDS011;7163;50.626;12.922;2024-01-30T21:09:46;12.83;;;5.43;;
14167;SDS011;7163;50.626;12.922;2024-01-30T21:14:46;13.40;;;5.00;;
14167;SDS011;7163;50.626;12.922;2024-01-30T21:19:48;13.53;;;6.10;;
14167;SDS011;7163;50.626;12.922;2024-01-30T21:24:49;14.53;;;5.73;;
14167;SDS011;7163;50.626;12.922;2024-01-30T21:29:50;10.93;;;6.63;;
14167;SDS011;7163;50.626;12.922;2024-01-30T21:34:51;13.10;;;6.17;;
14167;SDS011;7163;50.626;12.922;2024-01-30T21:39:51;12.70;;;5.43;;
14167;SDS011;7163;50.626;12.922;2024-01-30T21:44:54;12.23;;;5.73;;
14167;SDS011;7163;50.626;12.922;2024-01-30T22:00:15;14.47;;;6.40;;
14167;SDS011;7163;50.626;12.922;2024-01-30T22:05:19;11.00;;;6.33;;
14167;SDS011;7163;50.626;12.922;2024-01-30T22:41:21;11.60;;;7.07;;
14167;SDS011;7163;50.626;12.922;2024-01-30T23:01:53;17.63;;;7.77;;
14167;SDS011;7163;50.626;12.922;2024-01-30T23:06:54;15.00;;;7.10;;
14167;SDS011;7163;50.626;12.922;2024-01-30T23:11:54;12.20;;;6.97;;
14167;SDS011;7163;50.626;12.922;2024-01-30T23:16:55;13.00;;;7.07;;
14167;SDS011;7163;50.626;12.922;2024-01-30T23:21:55;12.90;;;7.10;;
14167;SDS011;7163;50.626;12.922;2024-01-30T23:26:56;13.53;;;7.13;;
14167;SDS011;7163;50.626;12.922;2024-01-30T23:31:56;16.53;;;7.77;;
14167;SDS011;7163;50.626;12.922;2024-01-30T23:36:57;15.27;;;7.83;;
14167;SDS011;7163;50.626;12.922;2024-01-30T23:41:58;21.63;;;8.60;;
14167;SDS011;7163;50.626;12.922;2024-01-30T23:46:59;11.73;;;6.93;;
14167;SDS011;7163;50.626;12.922;2024-01-30T23:51:59;12.83;;;7.23;;
14167;SDS011;7163;50.626;12.922;2024-01-30T23:57:01;15.70;;;7.63;;
